sensor_id;sensor_type;location;lat;lon;timestamp;pressure;altitude;pressure_sealevel;temperature;humidity
10606;BME280;5350;42.698;23.148;2022-09-23T00:01:34;93861.69;;;7.35;100.00
10606;BME280;5350;42.698;23.148;2022-09-23T00:04:01;93866.41;;;7.33;100.00
10606;BME280;5350;42.698;23.148;2022-09-23T00:06:27;93855.97;;;7.28;100.00
10606;BME280;5350;42.698;23.148;2022-09-23T00:08:54;93856.47;;;7.35;100.00
10606;BME280;5350;42.698;23.148;2022-09-23T00:11:23;93850.22;;;7.25;100.00
10606;BME280;5350;42.698;23.148;2022-09-23T00:13:50;93863.28;;;7.25;100.00
10606;BME280;5350;42.698;23.148;2022-09-23T00:16:17;93854.91;;;7.18;100.00
10606;BME280;5350;42.698;23.148;2022-09-23T00:18:44;93854.38;;;7.11;100.00
10606;BME280;5350;42.698;23.148;2022-09-23T00:21:12;93850.75;;;7.17;100.00
10606;BME280;5350;42.698;23.148;2022-09-23T00:23:39;93842.88;;;7.17;100.00
10606;BME280;5350;42.698;23.148;2022-09-23T00:26:07;93845.25;;;7.19;100.00
10606;BME280;5350;42.698;23.148;2022-09-23T00:28:36;93846.53;;;7.16;100.00
10606;BME280;5350;42.698;23.148;2022-09-23T00:31:02;93847.84;;;7.19;100.00
10606;BME280;5350;42.698;23.148;2022-09-23T00:33:29;93842.09;;;7.17;100.00
10606;BME280;5350;42.698;23.148;2022-09-23T00:35:57;93830.84;;;7.06;100.00
10606;BME280;5350;42.698;23.148;2022-09-23T00:38:23;93837.13;;;7.20;100.00
10606;BME280;5350;42.698;23.148;2022-09-23T00:40:50;93840.50;;;7.16;100.00
10606;BME280;5350;42.698;23.148;2022-09-23T00:43:16;93835.03;;;7.22;100.00
10606;BME280;5350;42.698;23.148;2022-09-23T00:45:45;93844.44;;;7.18;100.00
10606;BME280;5350;42.698;23.148;2022-09-23T00:48:13;93844.97;;;7.20;100.00
10606;BME280;5350;42.698;23.148;2022-09-23T00:50:41;93844.72;;;7.17;100.00
10606;BME280;5350;42.698;23.148;2022-09-23T00:53:09;93834.50;;;7.20;100.00
10606;BME280;5350;42.698;23.148;2022-09-23T00:55:37;93836.34;;;7.10;100.00
10606;BME280;5350;42.698;23.148;2022-09-23T00:58:05;93835.81;;;7.13;100.00
10606;BME280;5350;42.698;23.148;2022-09-23T01:00:33;93845.22;;;7.14;100.00
10606;BME280;5350;42.698;23.148;2022-09-23T01:03:01;93846.00;;;7.09;100.00
10606;BME280;5350;42.698;23.148;2022-09-23T01:05:29;93844.19;;;7.10;100.00
10606;BME280;5350;42.698;23.148;2022-09-23T01:07:55;93842.63;;;7.09;100.00
10606;BME280;5350;42.698;23.148;2022-09-23T01:10:22;93852.56;;;7.07;100.00
10606;BME280;5350;42.698;23.148;2022-09-23T01:12:57;93846.53;;;7.06;100.00
10606;BME280;5350;42.698;23.148;2022-09-23T01:15:31;93852.03;;;7.05;100.00
10606;BME280;5350;42.698;23.148;2022-09-23T01:18:10;93839.72;;;7.05;100.00
10606;BME280;5350;42.698;23.148;2022-09-23T01:20:54;93847.59;;;7.00;100.00
10606;BME280;5350;42.698;23.148;2022-09-23T01:23:26;93849.69;;;7.08;100.00
10606;BME280;5350;42.698;23.148;2022-09-23T01:26:00;93854.38;;;6.91;100.00
10606;BME280;5350;42.698;23.148;2022-09-23T01:28:39;93856.72;;;6.83;100.00
10606;BME280;5350;42.698;23.148;2022-09-23T01:31:14;93858.00;;;6.70;100.00
10606;BME280;5350;42.698;23.148;2022-09-23T01:33:46;93854.34;;;6.66;100.00
10606;BME280;5350;42.698;23.148;2022-09-23T01:36:17;93875.00;;;6.63;100.00
10606;BME280;5350;42.698;23.148;2022-09-23T01:38:49;93860.09;;;6.68;100.00
10606;BME280;5350;42.698;23.148;2022-09-23T01:41:24;93862.69;;;6.58;100.00
10606;BME280;5350;42.698;23.148;2022-09-23T01:43:57;93862.94;;;6.57;100.00
10606;BME280;5350;42.698;23.148;2022-09-23T01:46:28;93863.94;;;6.40;100.00
10606;BME280;5350;42.698;23.148;2022-09-23T01:48:58;93862.34;;;6.29;100.00
10606;BME280;5350;42.698;23.148;2022-09-23T01:51:28;93860.50;;;6.25;100.00
10606;BME280;5350;42.698;23.148;2022-09-23T01:53:59;93856.31;;;6.19;100.00
10606;BME280;5350;42.698;23.148;2022-09-23T01:56:29;93856.56;;;6.22;100.00
10606;BME280;5350;42.698;23.148;2022-09-23T01:58:58;93857.81;;;6.10;100.00
10606;BME280;5350;42.698;23.148;2022-09-23T02:01:31;93857.84;;;6.20;100.00
10606;BME280;5350;42.698;23.148;2022-09-23T02:04:01;93848.69;;;6.12;100.00
10606;BME280;5350;42.698;23.148;2022-09-23T02:06:31;93856.81;;;6.16;100.00
10606;BME280;5350;42.698;23.148;2022-09-23T02:09:00;93858.09;;;6.08;100.00
10606;BME280;5350;42.698;23.148;2022-09-23T02:11:27;93861.47;;;6.04;100.00
10606;BME280;5350;42.698;23.148;2022-09-23T02:14:01;93850.44;;;5.97;100.00
10606;BME280;5350;42.698;23.148;2022-09-23T02:16:32;93854.16;;;6.06;100.00
10606;BME280;5350;42.698;23.148;2022-09-23T02:19:00;93852.06;;;6.03;100.00
10606;BME280;5350;42.698;23.148;2022-09-23T02:21:30;93856.50;;;6.02;100.00
10606;BME280;5350;42.698;23.148;2022-09-23T02:24:01;93852.06;;;6.03;100.00
10606;BME280;5350;42.698;23.148;2022-09-23T02:26:30;93860.44;;;6.05;100.00
10606;BME280;5350;42.698;23.148;2022-09-23T02:29:01;93853.34;;;6.00;100.00
10606;BME280;5350;42.698;23.148;2022-09-23T02:31:35;93849.75;;;6.16;100.00
10606;BME280;5350;42.698;23.148;2022-09-23T02:34:07;93847.94;;;6.17;100.00
10606;BME280;5350;42.698;23.148;2022-09-23T02:36:39;93850.00;;;6.05;100.00
10606;BME280;5350;42.698;23.148;2022-09-23T02:39:11;93851.50;;;6.01;100.00
10606;BME280;5350;42.698;23.148;2022-09-23T02:41:40;93848.63;;;5.97;100.00
10606;BME280;5350;42.698;23.148;2022-09-23T02:44:10;93855.66;;;5.97;100.00
10606;BME280;5350;42.698;23.148;2022-09-23T02:46:39;93859.88;;;5.98;100.00
10606;BME280;5350;42.698;23.148;2022-09-23T02:49:08;93862.72;;;5.91;100.00
10606;BME280;5350;42.698;23.148;2022-09-23T02:51:36;93858.28;;;5.92;100.00
10606;BME280;5350;42.698;23.148;2022-09-23T02:54:04;93860.91;;;5.97;100.00
10606;BME280;5350;42.698;23.148;2022-09-23T02:56:32;93860.84;;;5.87;100.00
10606;BME280;5350;42.698;23.148;2022-09-23T02:58:59;93863.13;;;5.78;100.00
10606;BME280;5350;42.698;23.148;2022-09-23T03:01:29;93861.81;;;5.76;100.00
10606;BME280;5350;42.698;23.148;2022-09-23T03:04:03;93870.94;;;5.78;100.00
10606;BME280;5350;42.698;23.148;2022-09-23T03:06:35;93869.88;;;5.69;100.00
10606;BME280;5350;42.698;23.148;2022-09-23T03:09:05;93869.63;;;5.71;100.00
10606;BME280;5350;42.698;23.148;2022-09-23T03:11:34;93867.00;;;5.71;100.00
10606;BME280;5350;42.698;23.148;2022-09-23T03:14:06;93866.22;;;5.70;100.00
10606;BME280;5350;42.698;23.148;2022-09-23T03:16:42;93875.69;;;5.81;100.00
10606;BME280;5350;42.698;23.148;2022-09-23T03:19:17;93868.59;;;5.77;100.00
10606;BME280;5350;42.698;23.148;2022-09-23T03:21:48;93861.31;;;5.79;100.00
10606;BME280;5350;42.698;23.148;2022-09-23T03:24:16;93862.31;;;5.73;100.00
10606;BME280;5350;42.698;23.148;2022-09-23T03:26:45;93866.47;;;5.68;100.00
10606;BME280;5350;42.698;23.148;2022-09-23T03:29:12;93860.19;;;5.64;100.00
10606;BME280;5350;42.698;23.148;2022-09-23T03:31:39;93866.44;;;5.63;100.00
10606;BME280;5350;42.698;23.148;2022-09-23T03:34:07;93859.91;;;5.61;100.00
10606;BME280;5350;42.698;23.148;2022-09-23T03:36:39;93863.81;;;5.58;100.00
10606;BME280;5350;42.698;23.148;2022-09-23T03:39:25;93863.81;;;5.58;100.00
10606;BME280;5350;42.698;23.148;2022-09-23T03:41:53;93862.47;;;5.56;100.00
10606;BME280;5350;42.698;23.148;2022-09-23T03:44:20;93865.84;;;5.51;100.00
10606;BME280;5350;42.698;23.148;2022-09-23T03:46:47;93866.63;;;5.52;100.00
10606;BME280;5350;42.698;23.148;2022-09-23T03:49:16;93867.13;;;5.49;100.00
10606;BME280;5350;42.698;23.148;2022-09-23T03:51:44;93870.78;;;5.48;100.00
10606;BME280;5350;42.698;23.148;2022-09-23T03:54:10;93865.28;;;5.44;100.00
10606;BME280;5350;42.698;23.148;2022-09-23T03:56:37;93870.50;;;5.44;100.00
10606;BME280;5350;42.698;23.148;2022-09-23T03:59:03;93869.13;;;5.37;100.00
10606;BME280;5350;42.698;23.148;2022-09-23T04:01:30;93870.19;;;5.36;100.00
10606;BME280;5350;42.698;23.148;2022-09-23T04:03:57;93865.72;;;5.31;100.00
10606;BME280;5350;42.698;23.148;2022-09-23T04:06:24;93861.53;;;5.30;100.00
10606;BME280;5350;42.698;23.148;2022-09-23T04:08:52;93877.44;;;5.29;100.00
10606;BME280;5350;42.698;23.148;2022-09-23T04:11:18;93877.69;;;5.27;100.00
10606;BME280;5350;42.698;23.148;2022-09-23T04:13:45;93885.72;;;5.21;100.00
10606;BME280;5350;42.698;23.148;2022-09-23T04:16:11;93890.28;;;5.04;100.00
10606;BME280;5350;42.698;23.148;2022-09-23T04:18:37;93891.75;;;4.95;100.00
10606;BME280;5350;42.698;23.148;2022-09-23T04:21:04;93885.72;;;4.89;100.00
10606;BME280;5350;42.698;23.148;2022-09-23T04:23:31;93895.41;;;4.94;100.00
10606;BME280;5350;42.698;23.148;2022-09-23T04:25:58;93893.03;;;4.92;100.00
10606;BME280;5350;42.698;23.148;2022-09-23T04:28:25;93895.44;;;4.72;100.00
10606;BME280;5350;42.698;23.148;2022-09-23T04:30:51;93899.03;;;4.66;100.00
10606;BME280;5350;42.698;23.148;2022-09-23T04:33:19;93908.53;;;4.77;100.00
10606;BME280;5350;42.698;23.148;2022-09-23T04:35:48;93909.00;;;4.74;100.00
10606;BME280;5350;42.698;23.148;2022-09-23T04:38:15;93912.41;;;4.74;100.00
10606;BME280;5350;42.698;23.148;2022-09-23T04:40:41;93917.44;;;4.81;100.00
10606;BME280;5350;42.698;23.148;2022-09-23T04:43:09;93927.66;;;4.61;100.00
10606;BME280;5350;42.698;23.148;2022-09-23T04:45:35;93933.63;;;4.61;100.00
10606;BME280;5350;42.698;23.148;2022-09-23T04:48:02;93924.63;;;4.69;100.00
10606;BME280;5350;42.698;23.148;2022-09-23T04:50:29;93926.19;;;4.70;100.00
10606;BME280;5350;42.698;23.148;2022-09-23T04:52:58;93928.25;;;4.68;100.00
10606;BME280;5350;42.698;23.148;2022-09-23T04:55:24;93933.53;;;4.78;100.00
10606;BME280;5350;42.698;23.148;2022-09-23T04:57:51;93929.47;;;4.87;100.00
10606;BME280;5350;42.698;23.148;2022-09-23T05:00:19;93933.44;;;4.95;100.00
10606;BME280;5350;42.698;23.148;2022-09-23T05:02:47;93925.97;;;5.03;100.00
10606;BME280;5350;42.698;23.148;2022-09-23T05:05:14;93937.00;;;5.10;100.00
10606;BME280;5350;42.698;23.148;2022-09-23T05:07:45;93939.16;;;5.18;100.00
10606;BME280;5350;42.698;23.148;2022-09-23T05:10:11;93945.25;;;5.29;100.00
10606;BME280;5350;42.698;23.148;2022-09-23T05:12:38;93941.97;;;5.43;100.00
10606;BME280;5350;42.698;23.148;2022-09-23T05:15:05;93936.88;;;5.58;100.00
10606;BME280;5350;42.698;23.148;2022-09-23T05:17:32;93936.69;;;5.70;100.00
10606;BME280;5350;42.698;23.148;2022-09-23T05:20:01;93938.34;;;5.81;100.00
10606;BME280;5350;42.698;23.148;2022-09-23T05:22:28;93935.28;;;5.89;100.00
10606;BME280;5350;42.698;23.148;2022-09-23T05:24:54;93930.16;;;6.04;100.00
10606;BME280;5350;42.698;23.148;2022-09-23T05:27:23;93934.09;;;6.07;100.00
10606;BME280;5350;42.698;23.148;2022-09-23T05:29:50;93930.69;;;6.11;100.00
10606;BME280;5350;42.698;23.148;2022-09-23T05:32:17;93929.72;;;6.22;100.00
10606;BME280;5350;42.698;23.148;2022-09-23T05:34:45;93936.25;;;6.25;100.00
10606;BME280;5350;42.698;23.148;2022-09-23T05:37:11;93936.03;;;6.36;100.00
10606;BME280;5350;42.698;23.148;2022-09-23T05:39:38;93934.00;;;6.49;100.00
10606;BME280;5350;42.698;23.148;2022-09-23T05:42:04;93933.53;;;6.57;100.00
10606;BME280;5350;42.698;23.148;2022-09-23T05:44:31;93936.16;;;6.67;100.00
10606;BME280;5350;42.698;23.148;2022-09-23T05:46:57;93935.91;;;6.73;100.00
10606;BME280;5350;42.698;23.148;2022-09-23T05:49:24;93940.38;;;6.78;100.00
10606;BME280;5350;42.698;23.148;2022-09-23T05:51:52;93943.56;;;6.90;100.00
10606;BME280;5350;42.698;23.148;2022-09-23T05:54:18;93946.94;;;6.95;100.00
10606;BME280;5350;42.698;23.148;2022-09-23T05:56:45;93943.81;;;7.03;100.00
10606;BME280;5350;42.698;23.148;2022-09-23T05:59:11;93946.44;;;7.13;100.00
10606;BME280;5350;42.698;23.148;2022-09-23T06:01:38;93945.16;;;7.26;100.00
10606;BME280;5350;42.698;23.148;2022-09-23T06:04:05;93949.09;;;7.39;100.00
10606;BME280;5350;42.698;23.148;2022-09-23T06:06:32;93946.78;;;7.52;100.00
10606;BME280;5350;42.698;23.148;2022-09-23T06:09:01;93946.78;;;7.67;100.00
10606;BME280;5350;42.698;23.148;2022-09-23T06:11:28;93949.13;;;7.84;100.00
10606;BME280;5350;42.698;23.148;2022-09-23T06:13:55;93941.22;;;7.99;100.00
10606;BME280;5350;42.698;23.148;2022-09-23T06:16:25;93945.91;;;8.17;100.00
10606;BME280;5350;42.698;23.148;2022-09-23T06:18:51;93943.28;;;8.32;100.00
10606;BME280;5350;42.698;23.148;2022-09-23T06:21:18;93944.25;;;8.51;100.00
10606;BME280;5350;42.698;23.148;2022-09-23T06:23:45;93947.63;;;8.67;100.00
10606;BME280;5350;42.698;23.148;2022-09-23T06:26:14;93954.63;;;8.76;100.00
10606;BME280;5350;42.698;23.148;2022-09-23T06:28:41;93949.66;;;8.80;100.00
10606;BME280;5350;42.698;23.148;2022-09-23T06:31:09;93954.56;;;8.92;100.00
10606;BME280;5350;42.698;23.148;2022-09-23T06:33:36;93952.50;;;8.89;100.00
10606;BME280;5350;42.698;23.148;2022-09-23T06:36:05;93949.88;;;8.89;100.00
10606;BME280;5350;42.698;23.148;2022-09-23T06:38:32;93952.44;;;8.99;100.00
10606;BME280;5350;42.698;23.148;2022-09-23T06:40:59;93946.91;;;9.05;100.00
10606;BME280;5350;42.698;23.148;2022-09-23T06:43:27;93952.31;;;9.19;100.00
10606;BME280;5350;42.698;23.148;2022-09-23T06:45:54;93949.13;;;9.27;100.00
10606;BME280;5350;42.698;23.148;2022-09-23T06:48:21;93959.81;;;9.40;100.00
10606;BME280;5350;42.698;23.148;2022-09-23T06:50:48;93950.78;;;9.51;100.00
10606;BME280;5350;42.698;23.148;2022-09-23T06:53:16;93967.47;;;9.32;100.00
10606;BME280;5350;42.698;23.148;2022-09-23T06:55:42;93974.47;;;9.46;100.00
10606;BME280;5350;42.698;23.148;2022-09-23T06:58:09;93965.53;;;9.47;100.00
10606;BME280;5350;42.698;23.148;2022-09-23T07:00:37;93971.28;;;9.49;100.00
10606;BME280;5350;42.698;23.148;2022-09-23T07:03:05;93973.59;;;9.56;100.00
10606;BME280;5350;42.698;23.148;2022-09-23T07:05:32;93974.53;;;9.75;100.00
10606;BME280;5350;42.698;23.148;2022-09-23T07:07:58;93979.94;;;9.89;100.00
10606;BME280;5350;42.698;23.148;2022-09-23T07:10:25;93985.31;;;10.07;100.00
10606;BME280;5350;42.698;23.148;2022-09-23T07:12:53;93981.84;;;10.12;100.00
10606;BME280;5350;42.698;23.148;2022-09-23T07:15:19;93991.91;;;10.33;100.00
10606;BME280;5350;42.698;23.148;2022-09-23T07:17:47;93990.91;;;10.29;100.00
10606;BME280;5350;42.698;23.148;2022-09-23T07:20:14;93991.94;;;10.28;100.00
10606;BME280;5350;42.698;23.148;2022-09-23T07:22:42;93978.63;;;10.49;100.00
10606;BME280;5350;42.698;23.148;2022-09-23T07:25:08;93978.47;;;10.64;100.00
10606;BME280;5350;42.698;23.148;2022-09-23T07:27:35;93982.34;;;10.66;100.00
10606;BME280;5350;42.698;23.148;2022-09-23T07:30:02;93992.00;;;10.76;100.00
10606;BME280;5350;42.698;23.148;2022-09-23T07:32:28;93987.41;;;10.63;100.00
10606;BME280;5350;42.698;23.148;2022-09-23T07:34:57;93984.91;;;10.48;100.00
10606;BME280;5350;42.698;23.148;2022-09-23T07:37:23;93989.34;;;10.52;100.00
10606;BME280;5350;42.698;23.148;2022-09-23T07:39:50;93994.63;;;10.76;100.00
10606;BME280;5350;42.698;23.148;2022-09-23T07:42:16;93996.00;;;10.68;100.00
10606;BME280;5350;42.698;23.148;2022-09-23T07:44:43;93998.94;;;10.90;100.00
10606;BME280;5350;42.698;23.148;2022-09-23T07:47:10;93999.56;;;10.82;100.00
10606;BME280;5350;42.698;23.148;2022-09-23T07:49:37;94009.78;;;10.84;100.00
10606;BME280;5350;42.698;23.148;2022-09-23T07:52:05;94000.81;;;10.85;100.00
10606;BME280;5350;42.698;23.148;2022-09-23T07:54:31;93993.16;;;10.65;100.00
10606;BME280;5350;42.698;23.148;2022-09-23T07:56:58;93999.44;;;10.69;100.00
10606;BME280;5350;42.698;23.148;2022-09-23T07:59:25;94005.44;;;10.74;100.00
10606;BME280;5350;42.698;23.148;2022-09-23T08:01:52;93994.00;;;10.84;100.00
10606;BME280;5350;42.698;23.148;2022-09-23T08:04:19;93997.50;;;10.98;100.00
10606;BME280;5350;42.698;23.148;2022-09-23T08:06:47;93996.47;;;10.99;100.00
10606;BME280;5350;42.698;23.148;2022-09-23T08:09:16;93999.44;;;10.92;100.00
10606;BME280;5350;42.698;23.148;2022-09-23T08:11:43;94000.59;;;11.05;100.00
10606;BME280;5350;42.698;23.148;2022-09-23T08:14:11;94003.53;;;11.22;100.00
10606;BME280;5350;42.698;23.148;2022-09-23T08:16:38;94012.03;;;11.14;100.00
10606;BME280;5350;42.698;23.148;2022-09-23T08:19:05;94004.44;;;11.12;99.79
10606;BME280;5350;42.698;23.148;2022-09-23T08:21:31;94008.38;;;11.15;98.22
10606;BME280;5350;42.698;23.148;2022-09-23T08:23:58;93999.06;;;11.41;100.00
10606;BME280;5350;42.698;23.148;2022-09-23T08:26:26;93996.66;;;11.63;92.78
10606;BME280;5350;42.698;23.148;2022-09-23T08:28:53;93998.94;;;11.88;94.16
10606;BME280;5350;42.698;23.148;2022-09-23T08:31:20;94000.47;;;11.89;95.18
10606;BME280;5350;42.698;23.148;2022-09-23T08:33:47;93996.78;;;11.90;92.41
10606;BME280;5350;42.698;23.148;2022-09-23T08:36:13;93992.09;;;11.69;92.33
10606;BME280;5350;42.698;23.148;2022-09-23T08:38:40;93999.22;;;11.68;93.08
10606;BME280;5350;42.698;23.148;2022-09-23T08:41:09;93997.94;;;11.84;93.13
10606;BME280;5350;42.698;23.148;2022-09-23T08:43:42;94002.81;;;12.10;94.80
10606;BME280;5350;42.698;23.148;2022-09-23T08:46:09;94009.84;;;12.46;86.88
10606;BME280;5350;42.698;23.148;2022-09-23T08:48:37;94012.66;;;12.36;80.88
10606;BME280;5350;42.698;23.148;2022-09-23T08:51:10;94003.72;;;12.19;85.20
10606;BME280;5350;42.698;23.148;2022-09-23T08:53:38;94004.81;;;12.31;81.02
10606;BME280;5350;42.698;23.148;2022-09-23T08:56:09;94003.16;;;12.35;83.45
10606;BME280;5350;42.698;23.148;2022-09-23T08:58:41;94000.47;;;12.67;78.01
10606;BME280;5350;42.698;23.148;2022-09-23T09:01:12;93997.56;;;12.96;77.02
10606;BME280;5350;42.698;23.148;2022-09-23T09:03:42;93987.38;;;13.17;74.89
10606;BME280;5350;42.698;23.148;2022-09-23T09:06:11;93995.03;;;13.18;73.48
10606;BME280;5350;42.698;23.148;2022-09-23T09:08:39;93991.03;;;13.07;74.88
10606;BME280;5350;42.698;23.148;2022-09-23T09:11:06;93982.75;;;13.36;77.24
10606;BME280;5350;42.698;23.148;2022-09-23T09:13:34;93996.16;;;13.39;70.41
10606;BME280;5350;42.698;23.148;2022-09-23T09:16:15;93997.34;;;13.33;71.95
10606;BME280;5350;42.698;23.148;2022-09-23T09:18:46;93991.59;;;13.04;73.79
10606;BME280;5350;42.698;23.148;2022-09-23T09:21:17;93989.53;;;13.15;75.32
10606;BME280;5350;42.698;23.148;2022-09-23T09:23:49;93997.00;;;13.26;71.04
10606;BME280;5350;42.698;23.148;2022-09-23T09:26:19;93997.69;;;13.18;72.78
10606;BME280;5350;42.698;23.148;2022-09-23T09:28:47;93995.81;;;13.19;72.65
10606;BME280;5350;42.698;23.148;2022-09-23T09:31:19;93999.38;;;13.50;77.24
10606;BME280;5350;42.698;23.148;2022-09-23T09:33:50;94007.28;;;13.86;69.31
10606;BME280;5350;42.698;23.148;2022-09-23T09:36:25;94004.47;;;13.82;65.45
10606;BME280;5350;42.698;23.148;2022-09-23T09:38:54;94007.09;;;13.60;67.11
10606;BME280;5350;42.698;23.148;2022-09-23T09:41:23;94000.28;;;13.45;68.56
10606;BME280;5350;42.698;23.148;2022-09-23T09:43:51;94000.19;;;13.23;68.55
10606;BME280;5350;42.698;23.148;2022-09-23T09:49:10;94004.69;;;13.36;68.40
10606;BME280;5350;42.698;23.148;2022-09-23T09:51:39;94000.47;;;13.49;68.03
10606;BME280;5350;42.698;23.148;2022-09-23T09:54:15;94003.59;;;13.37;67.86
10606;BME280;5350;42.698;23.148;2022-09-23T09:56:47;93989.94;;;13.08;66.42
10606;BME280;5350;42.698;23.148;2022-09-23T09:59:15;94012.66;;;13.09;67.14
10606;BME280;5350;42.698;23.148;2022-09-23T10:01:47;93999.81;;;13.30;66.99
10606;BME280;5350;42.698;23.148;2022-09-23T10:04:20;93997.50;;;13.50;66.08
10606;BME280;5350;42.698;23.148;2022-09-23T10:07:02;93999.25;;;13.91;65.73
10606;BME280;5350;42.698;23.148;2022-09-23T10:09:30;93993.25;;;13.99;64.27
10606;BME280;5350;42.698;23.148;2022-09-23T10:12:01;93995.72;;;13.95;63.30
10606;BME280;5350;42.698;23.148;2022-09-23T10:14:28;94001.53;;;13.84;62.47
10606;BME280;5350;42.698;23.148;2022-09-23T10:17:00;93988.47;;;13.65;64.86
10606;BME280;5350;42.698;23.148;2022-09-23T10:19:30;93994.66;;;13.60;65.06
10606;BME280;5350;42.698;23.148;2022-09-23T10:21:57;93978.75;;;13.38;63.58
10606;BME280;5350;42.698;23.148;2022-09-23T10:24:25;93986.56;;;13.43;65.88
10606;BME280;5350;42.698;23.148;2022-09-23T10:26:55;93978.22;;;13.86;67.21
10606;BME280;5350;42.698;23.148;2022-09-23T10:29:23;93983.09;;;13.92;61.86
10606;BME280;5350;42.698;23.148;2022-09-23T10:31:56;93980.09;;;14.07;56.82
10606;BME280;5350;42.698;23.148;2022-09-23T10:34:39;93981.44;;;14.27;57.98
10606;BME280;5350;42.698;23.148;2022-09-23T10:37:10;93976.34;;;14.08;58.72
10606;BME280;5350;42.698;23.148;2022-09-23T10:39:39;93962.47;;;14.03;59.96
10606;BME280;5350;42.698;23.148;2022-09-23T10:42:25;93979.16;;;13.90;58.96
10606;BME280;5350;42.698;23.148;2022-09-23T10:45:16;93964.75;;;13.74;61.02
10606;BME280;5350;42.698;23.148;2022-09-23T10:48:02;93962.75;;;13.57;58.41
10606;BME280;5350;42.698;23.148;2022-09-23T10:50:38;93970.19;;;13.55;62.06
10606;BME280;5350;42.698;23.148;2022-09-23T10:53:11;93964.16;;;13.99;59.60
10606;BME280;5350;42.698;23.148;2022-09-23T10:55:42;93961.75;;;14.33;53.85
10606;BME280;5350;42.698;23.148;2022-09-23T10:58:23;93956.00;;;14.70;53.55
10606;BME280;5350;42.698;23.148;2022-09-23T11:00:57;93948.53;;;15.20;51.44
10606;BME280;5350;42.698;23.148;2022-09-23T11:03:51;93930.41;;;15.13;46.01
10606;BME280;5350;42.698;23.148;2022-09-23T11:06:23;93928.38;;;14.93;45.56
10606;BME280;5350;42.698;23.148;2022-09-23T11:08:58;93932.69;;;14.81;44.93
10606;BME280;5350;42.698;23.148;2022-09-23T11:11:32;93923.47;;;14.78;47.50
10606;BME280;5350;42.698;23.148;2022-09-23T11:14:10;93920.38;;;14.76;47.78
10606;BME280;5350;42.698;23.148;2022-09-23T11:16:44;93922.94;;;15.15;46.76
10606;BME280;5350;42.698;23.148;2022-09-23T11:19:22;93920.81;;;15.77;45.55
10606;BME280;5350;42.698;23.148;2022-09-23T11:22:05;93916.28;;;15.95;43.48
10606;BME280;5350;42.698;23.148;2022-09-23T11:24:47;93912.00;;;16.20;41.88
10606;BME280;5350;42.698;23.148;2022-09-23T11:27:25;93906.84;;;16.23;41.06
10606;BME280;5350;42.698;23.148;2022-09-23T11:29:59;93909.41;;;15.94;41.54
10606;BME280;5350;42.698;23.148;2022-09-23T11:35:15;93897.91;;;15.47;42.02
10606;BME280;5350;42.698;23.148;2022-09-23T11:37:47;93897.41;;;15.88;43.73
10606;BME280;5350;42.698;23.148;2022-09-23T11:40:15;93897.16;;;16.27;42.30
10606;BME280;5350;42.698;23.148;2022-09-23T11:42:46;93894.22;;;16.20;41.89
10606;BME280;5350;42.698;23.148;2022-09-23T11:45:17;93895.50;;;16.14;41.56
10606;BME280;5350;42.698;23.148;2022-09-23T11:47:47;93877.38;;;16.16;41.55
10606;BME280;5350;42.698;23.148;2022-09-23T11:50:17;93892.22;;;16.00;42.62
10606;BME280;5350;42.698;23.148;2022-09-23T11:52:46;93895.22;;;15.90;43.59
10606;BME280;5350;42.698;23.148;2022-09-23T11:55:16;93885.53;;;15.85;43.64
10606;BME280;5350;42.698;23.148;2022-09-23T11:57:44;93887.81;;;16.21;42.48
10606;BME280;5350;42.698;23.148;2022-09-23T12:00:13;93882.88;;;16.49;39.75
10606;BME280;5350;42.698;23.148;2022-09-23T12:02:46;93888.34;;;16.52;38.35
10606;BME280;5350;42.698;23.148;2022-09-23T12:05:15;93886.34;;;16.49;38.37
10606;BME280;5350;42.698;23.148;2022-09-23T12:07:45;93887.41;;;16.57;40.34
10606;BME280;5350;42.698;23.148;2022-09-23T12:10:17;93870.97;;;16.63;40.42
10606;BME280;5350;42.698;23.148;2022-09-23T12:12:46;93886.03;;;17.09;38.03
10606;BME280;5350;42.698;23.148;2022-09-23T12:15:18;93885.78;;;17.23;36.84
10606;BME280;5350;42.698;23.148;2022-09-23T12:17:55;93884.22;;;17.42;37.08
10606;BME280;5350;42.698;23.148;2022-09-23T12:20:30;93889.16;;;17.73;36.05
10606;BME280;5350;42.698;23.148;2022-09-23T12:23:04;93875.50;;;17.95;37.13
10606;BME280;5350;42.698;23.148;2022-09-23T12:25:38;93868.28;;;18.28;36.84
10606;BME280;5350;42.698;23.148;2022-09-23T12:28:09;93862.34;;;18.68;36.07
10606;BME280;5350;42.698;23.148;2022-09-23T12:30:37;93868.81;;;18.67;36.18
10606;BME280;5350;42.698;23.148;2022-09-23T12:33:08;93856.34;;;18.59;36.24
10606;BME280;5350;42.698;23.148;2022-09-23T12:35:38;93851.13;;;18.86;37.37
10606;BME280;5350;42.698;23.148;2022-09-23T12:38:10;93854.09;;;19.09;35.49
10606;BME280;5350;42.698;23.148;2022-09-23T12:40:39;93851.22;;;19.14;35.73
10606;BME280;5350;42.698;23.148;2022-09-23T12:43:14;93854.69;;;18.54;35.62
10606;BME280;5350;42.698;23.148;2022-09-23T12:45:40;93854.31;;;17.54;36.13
10606;BME280;5350;42.698;23.148;2022-09-23T12:48:26;93861.25;;;16.97;38.22
10606;BME280;5350;42.698;23.148;2022-09-23T12:51:15;93854.06;;;16.68;38.07
10606;BME280;5350;42.698;23.148;2022-09-23T12:53:51;93855.09;;;16.38;38.01
10606;BME280;5350;42.698;23.148;2022-09-23T12:56:21;93861.53;;;16.37;38.37
10606;BME280;5350;42.698;23.148;2022-09-23T12:59:00;93852.03;;;16.27;38.72
10606;BME280;5350;42.698;23.148;2022-09-23T13:01:35;93853.25;;;16.38;38.66
10606;BME280;5350;42.698;23.148;2022-09-23T13:04:02;93852.09;;;16.56;39.17
10606;BME280;5350;42.698;23.148;2022-09-23T13:06:48;93853.03;;;16.60;39.64
10606;BME280;5350;42.698;23.148;2022-09-23T13:09:18;93849.69;;;16.72;39.09
10606;BME280;5350;42.698;23.148;2022-09-23T13:11:48;93852.25;;;16.89;39.42
10606;BME280;5350;42.698;23.148;2022-09-23T13:14:15;93849.81;;;16.75;38.11
10606;BME280;5350;42.698;23.148;2022-09-23T13:16:45;93862.91;;;16.43;39.00
10606;BME280;5350;42.698;23.148;2022-09-23T13:21:58;93857.88;;;16.12;40.62